Time;durP1;ratioP1;P1;durP2;ratioP2;P2;SDS_P1;SDS_P2;PMS_P1;PMS_P2;Temp;Humidity;BMP_temperature;BMP_pressure;BME280_temperature;BME280_humidity;BME280_pressure;Samples;Min_cycle;Max_cycle;Signal;HPM_P1;HPM_P2
2023/05/04 00:00:22;;;;;;;8.70;7.80;;;22.50;77.70;;;;;;6212545;28;82369;-75
2023/05/04 00:03:24;;;;;;;7.85;7.15;;;22.40;77.70;;;;;;6224038;28;82318;-75
2023/05/04 00:06:26;;;;;;;8.35;7.65;;;22.50;77.70;;;;;;6213256;28;82343;-75
2023/05/04 00:09:28;;;;;;;8.15;7.45;;;22.50;77.70;;;;;;6226528;28;81152;-75
2023/05/04 00:12:32;;;;;;;8.90;8.00;;;22.50;77.70;;;;;;6228022;27;82315;-75
2023/05/04 00:15:34;;;;;;;8.43;7.72;;;22.50;77.70;;;;;;6235915;28;82273;-73
2023/05/04 00:18:36;;;;;;;8.40;7.70;;;22.40;77.60;;;;;;6230749;28;82339;-74
2023/05/04 00:21:38;;;;;;;8.68;7.88;;;22.50;77.70;;;;;;6221948;28;82236;-74
2023/05/04 00:24:42;;;;;;;9.00;8.13;;;22.50;77.70;;;;;;6223293;28;82378;-74
2023/05/04 00:27:45;;;;;;;9.00;8.10;;;22.50;77.70;;;;;;6210490;28;82576;-74
2023/05/04 00:30:47;;;;;;;8.60;7.90;;;22.50;77.70;;;;;;6235468;28;82312;-73
2023/05/04 00:33:49;;;;;;;8.73;7.93;;;22.50;77.70;;;;;;6212628;28;82352;-74
2023/05/04 00:36:51;;;;;;;8.60;7.85;;;22.50;77.70;;;;;;6217353;28;82712;-73
2023/05/04 00:39:53;;;;;;;8.90;8.10;;;22.40;77.60;;;;;;6229866;28;81427;-71
2023/05/04 00:42:56;;;;;;;8.68;7.88;;;22.50;77.70;;;;;;6223552;28;81302;-74
2023/05/04 00:45:59;;;;;;;10.00;8.95;;;22.40;77.60;;;;;;6213817;28;83920;-74
2023/05/04 00:49:01;;;;;;;9.45;8.55;;;22.40;77.60;;;;;;6229629;28;81501;-74
2023/05/04 00:52:05;;;;;;;9.38;8.52;;;22.40;77.60;;;;;;6211287;28;81383;-74
2023/05/04 00:55:07;;;;;;;9.55;8.65;;;22.40;77.60;;;;;;6233199;28;82262;-73
2023/05/04 00:58:11;;;;;;;9.70;8.80;;;22.40;77.50;;;;;;6238820;27;82334;-74
2023/05/04 01:01:13;;;;;;;9.73;8.82;;;22.40;77.60;;;;;;6233463;28;82327;-73
2023/05/04 01:04:15;;;;;;;9.27;8.48;;;22.40;77.50;;;;;;6236345;27;82315;-74
2023/05/04 01:07:26;;;;;;;10.45;9.38;;;22.40;77.50;;;;;;6209606;28;82409;-74
2023/05/04 01:10:35;;;;;;;10.50;9.48;;;22.40;77.50;;;;;;6224462;28;81201;-73
2023/05/04 01:13:40;;;;;;;9.68;8.80;;;22.40;77.50;;;;;;6222059;28;82539;-73
2023/05/04 01:16:42;;;;;;;9.77;8.88;;;22.40;77.50;;;;;;6239620;28;82724;-73
2023/05/04 01:19:44;;;;;;;10.13;9.15;;;22.40;77.60;;;;;;6228956;28;82224;-74
2023/05/04 01:22:47;;;;;;;9.68;8.77;;;22.40;77.50;;;;;;6239864;28;82638;-73
2023/05/04 01:25:57;;;;;;;10.18;9.27;;;22.40;77.50;;;;;;6238473;28;82357;-73
2023/05/04 01:29:06;;;;;;;10.60;9.50;;;22.40;77.50;;;;;;6217690;28;82594;-73
2023/05/04 01:32:08;;;;;;;10.55;9.55;;;22.40;77.40;;;;;;6228500;28;82432;-74
2023/05/04 01:35:12;;;;;;;10.40;9.40;;;22.40;77.50;;;;;;6228396;27;82330;-74
2023/05/04 01:38:15;;;;;;;10.40;9.45;;;22.40;77.50;;;;;;6238571;28;82231;-73
2023/05/04 01:41:17;;;;;;;10.93;9.93;;;22.40;77.50;;;;;;6229000;27;82366;-74
2023/05/04 01:44:20;;;;;;;10.55;9.55;;;22.40;77.50;;;;;;6235957;28;83946;-73
2023/05/04 01:47:22;;;;;;;11.15;9.98;;;22.30;77.40;;;;;;6225631;28;83255;-74
2023/05/04 01:50:24;;;;;;;10.55;9.60;;;22.30;77.40;;;;;;6244917;28;82956;-73
2023/05/04 01:53:27;;;;;;;10.63;9.63;;;22.40;77.40;;;;;;6229417;27;84085;-73
2023/05/04 01:56:30;;;;;;;11.27;10.18;;;22.40;77.50;;;;;;6224463;28;84943;-74
2023/05/04 01:59:32;;;;;;;11.10;10.10;;;22.30;77.40;;;;;;6229460;27;84461;-72
2023/05/04 02:02:34;;;;;;;11.23;10.13;;;22.40;77.40;;;;;;6222291;28;84110;-74
2023/05/04 02:05:36;;;;;;;10.80;9.80;;;22.40;77.40;;;;;;6232619;28;82954;-74
2023/05/04 02:08:40;;;;;;;10.45;9.45;;;22.40;77.40;;;;;;6234760;28;84073;-75
2023/05/04 02:11:41;;;;;;;10.50;9.50;;;22.40;77.40;;;;;;6223334;28;82977;-75
2023/05/04 02:14:44;;;;;;;10.57;9.57;;;22.40;77.40;;;;;;6220857;28;82946;-75
2023/05/04 02:17:46;;;;;;;10.45;9.45;;;22.40;77.40;;;;;;6236239;28;82706;-75
2023/05/04 02:20:48;;;;;;;10.73;9.73;;;22.40;77.40;;;;;;6233489;28;84180;-75
2023/05/04 02:23:51;;;;;;;10.07;9.18;;;22.30;77.30;;;;;;6242525;27;84079;-75
2023/05/04 02:26:53;;;;;;;10.65;9.65;;;22.30;77.30;;;;;;6239808;27;85259;-76
2023/05/04 02:29:57;;;;;;;10.13;9.23;;;22.30;77.30;;;;;;6221423;28;84248;-74
2023/05/04 02:32:59;;;;;;;10.02;9.10;;;22.40;77.40;;;;;;6235815;28;83098;-74
2023/05/04 02:36:01;;;;;;;10.73;9.73;;;22.40;77.40;;;;;;6221699;28;84111;-75
2023/05/04 02:39:04;;;;;;;10.55;9.55;;;22.40;77.40;;;;;;6236697;28;83038;-75
2023/05/04 02:42:06;;;;;;;10.05;9.10;;;22.40;78.30;;;;;;6234101;28;84014;-75
2023/05/04 02:45:09;;;;;;;10.18;9.27;;;22.30;77.20;;;;;;6213010;28;84059;-75
2023/05/04 02:48:11;;;;;;;11.93;9.93;;;22.30;77.20;;;;;;6221305;28;83561;-75
2023/05/04 02:51:13;;;;;;;10.10;9.20;;;22.30;77.30;;;;;;6223911;28;84439;-76
2023/05/04 02:54:17;;;;;;;10.57;9.57;;;22.40;77.30;;;;;;6225054;28;83962;-76
2023/05/04 02:57:19;;;;;;;9.50;8.65;;;22.30;77.20;;;;;;6238332;28;83996;-75
2023/05/04 03:00:21;;;;;;;9.77;8.88;;;22.40;77.40;;;;;;6244141;27;84226;-75
2023/05/04 03:03:23;;;;;;;9.48;8.65;;;22.30;77.30;;;;;;6234606;27;83197;-76
2023/05/04 03:06:25;;;;;;;9.27;8.48;;;22.30;77.20;;;;;;6231372;27;82915;-76
2023/05/04 03:09:29;;;;;;;9.43;8.60;;;22.30;77.30;;;;;;6240133;28;84058;-75
2023/05/04 03:12:31;;;;;;;9.63;8.80;;;22.30;77.20;;;;;;6240157;28;83072;-75
2023/05/04 03:15:33;;;;;;;9.07;8.27;;;22.30;77.20;;;;;;6227394;27;84415;-74
2023/05/04 03:18:35;;;;;;;9.90;8.90;;;22.30;77.20;;;;;;6236706;28;82197;-75
2023/05/04 03:21:37;;;;;;;9.38;8.57;;;22.40;77.20;;;;;;6242719;27;84343;-76
2023/05/04 03:24:40;;;;;;;9.10;8.30;;;22.30;77.20;;;;;;6234361;28;84054;-73
2023/05/04 03:27:42;;;;;;;9.23;8.43;;;22.30;77.20;;;;;;6234064;28;85033;-74
2023/05/04 03:30:44;;;;;;;8.65;7.85;;;22.30;77.20;;;;;;6229315;28;83980;-74
2023/05/04 03:33:46;;;;;;;8.93;8.10;;;22.30;77.20;;;;;;6225450;28;83163;-75
2023/05/04 03:36:49;;;;;;;9.93;8.93;;;22.30;77.20;;;;;;6232913;28;84108;-74
2023/05/04 03:39:52;;;;;;;9.32;8.43;;;22.30;77.20;;;;;;6211423;28;84285;-74
2023/05/04 03:42:54;;;;;;;8.80;8.00;;;22.30;77.20;;;;;;6216765;28;83903;-73
2023/05/04 03:45:56;;;;;;;8.52;7.72;;;22.30;77.20;;;;;;6220074;28;83971;-74
2023/05/04 03:48:58;;;;;;;8.35;7.65;;;22.30;77.20;;;;;;6220635;28;83398;-74
2023/05/04 03:52:00;;;;;;;8.57;7.78;;;22.30;77.20;;;;;;6223855;28;84497;-74
2023/05/04 03:55:04;;;;;;;8.70;7.90;;;22.30;77.20;;;;;;6218106;28;84271;-75
2023/05/04 03:58:06;;;;;;;8.50;7.72;;;22.30;77.10;;;;;;6238606;27;84951;-75
2023/05/04 04:01:08;;;;;;;8.65;7.85;;;22.30;77.20;;;;;;6229731;28;84095;-74
2023/05/04 04:04:10;;;;;;;8.98;7.88;;;22.30;77.10;;;;;;6208280;28;83795;-74
2023/05/04 04:07:12;;;;;;;8.27;7.47;;;22.30;77.10;;;;;;6225403;28;83981;-75
2023/05/04 04:10:16;;;;;;;8.40;7.60;;;22.30;77.10;;;;;;6222745;28;83591;-74
2023/05/04 04:13:18;;;;;;;7.55;6.85;;;22.40;77.20;;;;;;6211865;28;84081;-74
2023/05/04 04:16:20;;;;;;;7.38;6.78;;;22.30;77.10;;;;;;6235413;27;84218;-74
2023/05/04 04:19:22;;;;;;;7.85;7.15;;;22.30;77.10;;;;;;6239910;28;82327;-75
2023/05/04 04:22:25;;;;;;;8.23;7.43;;;22.30;77.10;;;;;;6238410;28;82788;-75
2023/05/04 04:25:28;;;;;;;8.40;7.60;;;22.30;77.10;;;;;;6257687;27;83074;-75
2023/05/04 04:28:30;;;;;;;7.30;6.70;;;22.30;77.10;;;;;;6244729;28;85051;-75
2023/05/04 04:31:32;;;;;;;7.47;6.78;;;22.30;77.10;;;;;;6219947;28;83798;-75
2023/05/04 04:34:35;;;;;;;7.60;6.90;;;22.30;77.10;;;;;;6211797;28;83979;-75
2023/05/04 04:37:37;;;;;;;7.40;6.70;;;22.30;77.10;;;;;;6228736;28;84022;-75
2023/05/04 04:40:40;;;;;;;7.60;6.90;;;22.40;77.10;;;;;;6234122;28;83986;-76
2023/05/04 04:43:42;;;;;;;7.10;6.50;;;22.30;77.10;;;;;;6215214;28;84568;-75
2023/05/04 04:46:46;;;;;;;7.47;6.78;;;22.40;77.10;;;;;;6218534;28;83973;-75
2023/05/04 04:49:48;;;;;;;6.82;6.22;;;22.30;77.20;;;;;;6225459;28;82966;-75
2023/05/04 04:52:50;;;;;;;7.07;6.47;;;22.30;77.10;;;;;;6232102;27;83980;-75
2023/05/04 04:55:53;;;;;;;6.50;5.90;;;22.40;77.20;;;;;;6220599;28;84168;-71
2023/05/04 04:58:55;;;;;;;7.32;6.65;;;22.40;78.40;;;;;;6225305;28;85011;-73
2023/05/04 05:01:58;;;;;;;7.88;7.13;;;22.40;79.90;;;;;;6246200;28;84007;-72
2023/05/04 05:05:00;;;;;;;7.63;6.93;;;22.40;80.10;;;;;;6233128;28;83417;-74
2023/05/04 05:08:02;;;;;;;7.70;6.88;;;22.50;81.30;;;;;;6229910;28;84068;-72
2023/05/04 05:11:05;;;;;;;6.88;6.28;;;22.60;79.90;;;;;;6244421;27;84073;-73
2023/05/04 05:14:07;;;;;;;6.95;6.35;;;22.60;80.10;;;;;;6238792;28;84298;-73
2023/05/04 05:17:10;;;;;;;6.63;6.03;;;22.60;78.60;;;;;;6234754;28;83990;-73
2023/05/04 05:20:14;;;;;;;6.80;6.20;;;22.60;78.60;;;;;;6234571;27;83506;-73
2023/05/04 05:23:16;;;;;;;6.60;6.00;;;22.60;78.60;;;;;;6228839;28;84106;-72
2023/05/04 05:26:19;;;;;;;6.80;6.07;;;22.50;78.40;;;;;;6231380;28;84908;-72
2023/05/04 05:29:21;;;;;;;7.50;6.70;;;22.50;78.40;;;;;;6228482;28;84891;-72
2023/05/04 05:32:23;;;;;;;6.68;6.07;;;22.60;78.50;;;;;;6221910;28;84178;-73
2023/05/04 05:35:25;;;;;;;6.70;6.10;;;22.50;78.40;;;;;;6237398;28;84118;-75
2023/05/04 05:38:27;;;;;;;6.72;6.03;;;22.50;78.50;;;;;;6227368;28;85096;-74
2023/05/04 05:41:31;;;;;;;6.57;5.97;;;22.60;78.60;;;;;;6222367;27;84318;-72
2023/05/04 05:44:36;;;;;;;6.55;5.95;;;22.50;78.40;;;;;;6238048;28;84566;-73
2023/05/04 05:47:38;;;;;;;6.72;5.75;;;22.50;78.40;;;;;;6237036;28;84224;-72
2023/05/04 05:50:40;;;;;;;6.55;5.95;;;22.50;78.30;;;;;;6226488;28;83293;-73
2023/05/04 05:53:43;;;;;;;6.63;5.95;;;22.60;78.40;;;;;;6232909;27;84037;-73
2023/05/04 05:56:47;;;;;;;6.03;5.50;;;22.50;78.40;;;;;;6235289;27;83994;-73
2023/05/04 05:59:49;;;;;;;6.05;5.47;;;22.50;78.30;;;;;;6228564;28;83843;-73
2023/05/04 06:02:52;;;;;;;5.85;5.35;;;22.50;78.40;;;;;;6223516;28;84030;-73
2023/05/04 06:05:54;;;;;;;6.20;5.60;;;22.50;78.40;;;;;;6211484;28;84079;-73
2023/05/04 06:08:56;;;;;;;6.50;5.90;;;22.50;78.40;;;;;;6226826;28;83914;-73
2023/05/04 06:12:00;;;;;;;6.07;5.47;;;22.50;78.40;;;;;;6228411;28;83550;-72
2023/05/04 06:15:02;;;;;;;6.00;5.50;;;22.50;78.40;;;;;;6236232;28;84416;-73
2023/05/04 06:18:04;;;;;;;5.88;5.38;;;22.50;78.40;;;;;;6224300;28;84334;-73
2023/05/04 06:21:06;;;;;;;5.65;5.15;;;22.50;78.50;;;;;;6241966;28;82174;-74
2023/05/04 06:24:08;;;;;;;6.85;5.47;;;22.50;78.50;;;;;;6238604;28;83433;-73
2023/05/04 06:27:12;;;;;;;10.65;5.57;;;22.50;78.70;;;;;;6229862;28;83989;-73
2023/05/04 06:30:15;;;;;;;6.70;5.90;;;22.50;78.80;;;;;;6227111;28;84937;-73
2023/05/04 06:33:17;;;;;;;7.43;5.43;;;22.50;78.80;;;;;;6227434;28;84213;-73
2023/05/04 06:36:19;;;;;;;6.15;5.55;;;22.50;78.80;;;;;;6228875;28;82975;-72
2023/05/04 06:39:21;;;;;;;5.90;5.15;;;22.50;79.80;;;;;;6233684;28;83985;-73
2023/05/04 06:42:24;;;;;;;5.60;5.10;;;22.50;78.90;;;;;;6230552;28;83257;-73
2023/05/04 06:45:27;;;;;;;5.25;4.85;;;22.50;78.90;;;;;;6218504;28;82999;-74
2023/05/04 06:48:29;;;;;;;5.60;5.10;;;22.50;79.00;;;;;;6217912;28;84016;-73
2023/05/04 06:51:34;;;;;;;6.68;5.32;;;22.50;79.00;;;;;;6230255;28;82071;-73
2023/05/04 06:54:36;;;;;;;6.10;5.50;;;22.50;79.00;;;;;;6232845;28;83217;-72
2023/05/04 06:57:39;;;;;;;5.32;4.82;;;22.50;79.00;;;;;;6238442;28;83959;-73
2023/05/04 07:00:42;;;;;;;5.63;5.13;;;22.50;79.00;;;;;;6231417;28;83872;-72
2023/05/04 07:03:44;;;;;;;5.57;5.07;;;22.50;79.00;;;;;;6248500;28;83215;-73
2023/05/04 07:06:46;;;;;;;5.32;4.82;;;22.40;78.90;;;;;;6213170;28;84032;-72
2023/05/04 07:09:49;;;;;;;5.65;5.10;;;22.50;79.10;;;;;;6226480;28;84337;-73
2023/05/04 07:12:52;;;;;;;5.47;4.65;;;22.50;79.10;;;;;;6242523;28;84008;-73
2023/05/04 07:15:54;;;;;;;5.25;4.75;;;22.50;79.10;;;;;;6219331;28;84120;-72
2023/05/04 07:18:57;;;;;;;5.97;4.63;;;22.50;79.00;;;;;;6239737;28;83990;-73
2023/05/04 07:21:59;;;;;;;5.35;4.85;;;22.50;79.10;;;;;;6227005;28;83265;-73
2023/05/04 07:25:01;;;;;;;5.45;4.90;;;22.50;79.10;;;;;;6228124;28;84056;-73
2023/05/04 07:28:05;;;;;;;5.53;5.03;;;22.50;79.10;;;;;;6222416;28;84003;-74
2023/05/04 07:31:07;;;;;;;5.10;4.60;;;22.50;79.10;;;;;;6234307;28;84417;-72
2023/05/04 07:34:09;;;;;;;5.22;4.72;;;22.50;79.10;;;;;;6227319;27;82908;-73
2023/05/04 07:37:11;;;;;;;5.82;4.93;;;22.60;79.10;;;;;;6241286;28;84114;-73
2023/05/04 07:40:15;;;;;;;4.93;4.43;;;22.50;79.10;;;;;;6229428;28;83987;-72
2023/05/04 07:43:18;;;;;;;5.07;4.50;;;22.50;79.10;;;;;;6218155;28;83958;-73
2023/05/04 07:46:20;;;;;;;5.28;4.50;;;22.50;79.10;;;;;;6222540;28;83936;-73
2023/05/04 07:49:22;;;;;;;4.85;4.45;;;22.50;79.30;;;;;;6234015;28;83645;-73
2023/05/04 07:52:24;;;;;;;5.10;4.60;;;22.60;79.30;;;;;;6214713;27;83269;-73
2023/05/04 07:55:27;;;;;;;5.03;4.53;;;22.60;79.30;;;;;;6231348;28;84114;-73
2023/05/04 07:58:31;;;;;;;4.90;4.40;;;22.60;79.30;;;;;;6224302;28;83938;-73
2023/05/04 08:01:33;;;;;;;4.82;4.35;;;22.50;79.30;;;;;;6217817;28;85466;-72
2023/05/04 08:04:35;;;;;;;5.00;4.55;;;22.60;79.40;;;;;;6222068;28;84109;-74
2023/05/04 08:07:37;;;;;;;4.82;4.38;;;22.60;79.50;;;;;;6218477;28;84011;-73
2023/05/04 08:10:39;;;;;;;5.25;4.47;;;22.60;79.40;;;;;;6226312;28;84134;-73
2023/05/04 08:13:45;;;;;;;4.82;4.35;;;22.60;79.50;;;;;;6234902;28;83991;-74
2023/05/04 08:16:47;;;;;;;4.68;4.28;;;22.60;79.50;;;;;;6219890;28;84507;-72
2023/05/04 08:19:49;;;;;;;5.50;4.50;;;22.60;79.70;;;;;;6238042;28;82905;-74
2023/05/04 08:22:52;;;;;;;4.57;4.18;;;22.60;79.60;;;;;;6230543;28;85495;-73
2023/05/04 08:25:54;;;;;;;4.10;3.80;;;22.60;79.60;;;;;;6222558;28;84104;-74
2023/05/04 08:29:06;;;;;;;5.60;4.75;;;22.70;79.80;;;;;;6212905;28;84078;-73
2023/05/04 08:32:08;;;;;;;5.15;4.10;;;22.60;79.70;;;;;;6231276;28;85333;-73
2023/05/04 08:35:10;;;;;;;4.25;3.90;;;22.60;79.80;;;;;;6220310;28;84068;-74
2023/05/04 08:38:12;;;;;;;4.20;3.80;;;22.60;79.80;;;;;;6222317;28;82905;-74
2023/05/04 08:41:15;;;;;;;4.65;4.25;;;22.60;79.80;;;;;;6231608;28;83932;-73
2023/05/04 08:44:18;;;;;;;5.07;4.20;;;22.60;80.70;;;;;;6235065;28;82008;-73
2023/05/04 08:47:20;;;;;;;4.60;4.20;;;22.60;79.80;;;;;;6232867;28;83965;-73
2023/05/04 08:50:22;;;;;;;4.80;4.32;;;22.60;79.80;;;;;;6226540;28;84068;-74
2023/05/04 08:53:25;;;;;;;4.45;4.00;;;22.60;79.90;;;;;;6217506;28;82119;-74
2023/05/04 08:56:27;;;;;;;4.30;3.90;;;22.70;79.90;;;;;;6216240;28;84000;-74
2023/05/04 08:59:32;;;;;;;4.25;3.83;;;22.70;79.90;;;;;;6216530;28;83996;-74
2023/05/04 09:02:35;;;;;;;4.70;4.00;;;22.70;80.80;;;;;;6221305;28;83590;-73
2023/05/04 09:05:37;;;;;;;4.32;3.92;;;22.70;80.00;;;;;;6243590;27;84069;-74
2023/05/04 09:08:39;;;;;;;3.80;3.50;;;22.70;80.00;;;;;;6220911;28;84105;-74
2023/05/04 09:11:42;;;;;;;4.32;3.90;;;22.60;79.90;;;;;;6219803;28;84000;-74
2023/05/04 09:14:46;;;;;;;4.10;3.70;;;22.70;80.00;;;;;;6231907;28;82947;-73
2023/05/04 09:17:58;;;;;;;4.22;3.70;;;22.70;79.90;;;;;;6219834;28;84413;-73
2023/05/04 09:21:00;;;;;;;4.18;3.60;;;22.70;80.00;;;;;;6234887;28;84139;-75
2023/05/04 09:24:02;;;;;;;4.70;4.13;;;22.70;79.90;;;;;;6236413;28;83313;-73
2023/05/04 09:27:14;;;;;;;4.63;4.15;;;22.70;80.00;;;;;;6223701;28;84109;-73
2023/05/04 09:30:21;;;;;;;4.85;3.55;;;22.70;80.00;;;;;;6225437;28;84110;-73
2023/05/04 09:33:26;;;;;;;4.97;3.80;;;22.70;80.10;;;;;;6228216;28;84932;-74
2023/05/04 09:36:28;;;;;;;4.30;3.65;;;22.70;80.20;;;;;;6209697;27;84150;-73
2023/05/04 09:39:30;;;;;;;4.07;3.67;;;22.70;80.30;;;;;;6209219;28;82940;-73
2023/05/04 09:42:32;;;;;;;4.45;3.53;;;22.70;80.30;;;;;;6228278;28;84059;-74
2023/05/04 09:45:43;;;;;;;4.03;3.63;;;22.70;80.20;;;;;;6246771;27;83212;-73
2023/05/04 09:48:52;;;;;;;4.07;3.38;;;22.70;80.20;;;;;;6231720;28;84253;-74
2023/05/04 09:51:54;;;;;;;5.65;3.30;;;22.70;80.20;;;;;;6238480;28;83161;-73
2023/05/04 09:54:58;;;;;;;4.55;3.72;;;22.70;80.10;;;;;;6228860;28;83245;-73
2023/05/04 09:58:01;;;;;;;6.45;3.40;;;22.70;80.10;;;;;;6224064;28;84057;-74
2023/05/04 10:01:05;;;;;;;6.20;3.72;;;22.70;80.10;;;;;;6228223;28;83843;-74
2023/05/04 10:04:07;;;;;;;4.55;3.70;;;22.70;80.10;;;;;;6238417;28;83767;-74
2023/05/04 10:07:09;;;;;;;5.43;3.92;;;22.70;80.00;;;;;;6259119;27;83999;-73
2023/05/04 10:10:13;;;;;;;5.53;3.38;;;22.70;80.00;;;;;;6225056;28;83196;-74
2023/05/04 10:13:16;;;;;;;3.80;3.50;;;22.70;80.00;;;;;;6236642;28;83877;-74
2023/05/04 10:16:36;;;;;;;5.45;3.42;;;22.70;80.00;;;;;;6226724;28;84237;-71
2023/05/04 10:19:53;;;;;;;3.65;3.35;;;22.70;80.00;;;;;;6222978;28;84020;-74
2023/05/04 10:23:09;;;;;;;3.65;3.25;;;22.70;80.00;;;;;;6241745;28;84065;-73
2023/05/04 10:26:26;;;;;;;3.85;3.40;;;22.70;80.00;;;;;;6224560;28;83253;-75
2023/05/04 10:29:31;;;;;;;3.78;3.47;;;22.70;79.90;;;;;;6219507;28;84035;-73
2023/05/04 10:32:38;;;;;;;3.33;3.03;;;22.70;79.80;;;;;;6234939;28;84067;-74
2023/05/04 10:35:51;;;;;;;4.43;3.60;;;22.70;79.80;;;;;;6222480;28;86431;-73
2023/05/04 10:38:53;;;;;;;3.60;3.30;;;22.70;79.80;;;;;;6235165;28;83910;-73
2023/05/04 10:42:02;;;;;;;3.95;3.55;;;22.70;79.80;;;;;;6234296;27;82929;-74
2023/05/04 10:45:05;;;;;;;4.50;3.35;;;22.70;79.80;;;;;;6237158;28;82921;-74
2023/05/04 10:48:09;;;;;;;4.68;3.63;;;22.70;79.80;;;;;;6250665;28;84200;-74
2023/05/04 10:51:18;;;;;;;3.78;3.30;;;22.70;79.80;;;;;;6222633;28;84050;-74
2023/05/04 10:54:20;;;;;;;3.70;3.28;;;22.80;80.70;;;;;;6231476;28;84083;-74
2023/05/04 10:57:22;;;;;;;3.60;3.30;;;22.70;79.80;;;;;;6242741;28;83383;-75
2023/05/04 11:00:35;;;;;;;4.88;3.47;;;22.70;79.80;;;;;;6232309;27;84050;-74
2023/05/04 11:03:42;;;;;;;3.80;3.40;;;22.70;79.80;;;;;;6223694;28;84370;-75
2023/05/04 11:06:44;;;;;;;3.40;3.10;;;22.70;79.80;;;;;;6233831;28;83884;-74
2023/05/04 11:09:47;;;;;;;3.85;3.22;;;22.70;79.70;;;;;;6231482;28;82911;-75
2023/05/04 11:12:49;;;;;;;3.63;3.17;;;22.70;79.70;;;;;;6244518;27;82918;-75
2023/05/04 11:15:51;;;;;;;3.30;3.00;;;22.80;79.80;;;;;;6217369;28;82638;-74
2023/05/04 11:18:55;;;;;;;3.47;3.17;;;22.70;79.70;;;;;;6227180;28;84041;-75
2023/05/04 11:21:57;;;;;;;3.13;2.90;;;22.70;79.60;;;;;;6233640;27;84089;-75
2023/05/04 11:24:59;;;;;;;3.40;3.10;;;22.70;79.60;;;;;;6217813;28;84118;-74
2023/05/04 11:28:01;;;;;;;4.25;3.45;;;22.70;79.60;;;;;;6233655;27;82476;-75
2023/05/04 11:31:13;;;;;;;4.13;3.42;;;22.70;79.50;;;;;;6258299;27;84204;-75
2023/05/04 11:34:21;;;;;;;3.88;3.35;;;22.70;79.50;;;;;;6234232;28;82981;-75
2023/05/04 11:37:23;;;;;;;3.30;2.97;;;22.70;79.50;;;;;;6235463;28;84918;-74
2023/05/04 11:40:26;;;;;;;3.30;3.00;;;22.70;79.50;;;;;;6246686;28;85149;-74
2023/05/04 11:43:28;;;;;;;3.40;3.10;;;22.70;79.40;;;;;;6234667;28;84209;-75
2023/05/04 11:46:33;;;;;;;3.40;3.10;;;22.70;79.40;;;;;;6255369;28;84282;-75
2023/05/04 11:49:36;;;;;;;3.38;3.08;;;22.70;79.40;;;;;;6238865;27;84121;-74
2023/05/04 11:52:39;;;;;;;3.35;3.00;;;22.70;79.40;;;;;;6252809;28;84103;-74
2023/05/04 11:55:42;;;;;;;3.55;3.25;;;22.70;79.30;;;;;;6245538;27;84284;-73
2023/05/04 11:58:44;;;;;;;3.30;3.00;;;22.70;79.30;;;;;;6237180;28;83378;-73
2023/05/04 12:01:46;;;;;;;3.42;3.00;;;22.70;79.30;;;;;;6234730;28;84346;-73
2023/05/04 12:04:50;;;;;;;3.53;3.22;;;22.70;79.30;;;;;;6220707;28;83906;-74
2023/05/04 12:07:52;;;;;;;3.28;3.00;;;22.70;79.30;;;;;;6252665;27;84993;-73
2023/05/04 12:11:13;;;;;;;3.38;3.08;;;22.80;79.30;;;;;;6232720;27;84105;-74
2023/05/04 12:14:15;;;;;;;3.38;3.05;;;22.70;79.20;;;;;;6251694;27;82958;-74
2023/05/04 12:17:19;;;;;;;3.45;2.88;;;22.70;79.10;;;;;;6216625;28;84199;-74
2023/05/04 12:20:27;;;;;;;3.40;3.10;;;22.80;79.10;;;;;;6225127;28;83993;-73
2023/05/04 12:23:30;;;;;;;3.03;2.83;;;22.70;79.10;;;;;;6240222;28;83956;-74
2023/05/04 12:26:32;;;;;;;3.55;3.15;;;22.80;79.10;;;;;;6239219;27;84044;-74
2023/05/04 12:29:34;;;;;;;4.00;3.55;;;22.70;78.90;;;;;;6244054;27;82196;-73
2023/05/04 12:32:36;;;;;;;4.18;3.38;;;22.70;78.90;;;;;;6221225;28;84058;-74
2023/05/04 12:35:40;;;;;;;4.00;3.60;;;22.70;78.90;;;;;;6233673;27;84119;-74
2023/05/04 12:38:42;;;;;;;3.60;3.30;;;22.80;78.90;;;;;;6224058;28;85279;-74
2023/05/04 12:41:44;;;;;;;3.90;3.40;;;22.70;78.80;;;;;;6215908;28;84024;-74
2023/05/04 12:44:46;;;;;;;3.67;3.38;;;22.70;78.80;;;;;;6236985;28;84248;-74
2023/05/04 12:47:48;;;;;;;3.15;2.85;;;22.80;78.80;;;;;;6226104;27;84440;-74
2023/05/04 12:50:51;;;;;;;3.80;3.40;;;22.70;78.70;;;;;;6220960;28;84023;-73
2023/05/04 12:53:53;;;;;;;3.80;3.35;;;22.80;78.80;;;;;;6236387;28;83229;-73
2023/05/04 12:56:56;;;;;;;3.60;3.30;;;22.80;78.70;;;;;;6227108;28;83083;-74
2023/05/04 12:59:59;;;;;;;3.75;3.45;;;22.70;78.60;;;;;;6219973;28;83764;-73
2023/05/04 13:03:01;;;;;;;3.72;3.42;;;22.70;78.60;;;;;;6213248;28;84140;-74
2023/05/04 13:06:05;;;;;;;3.60;3.30;;;22.70;78.60;;;;;;6239792;28;84003;-74
2023/05/04 13:09:07;;;;;;;3.85;3.30;;;22.70;78.60;;;;;;6237452;28;85035;-73
2023/05/04 13:12:09;;;;;;;3.92;3.53;;;22.70;78.50;;;;;;6255639;28;84035;-74
2023/05/04 13:15:12;;;;;;;3.50;3.20;;;22.70;78.60;;;;;;6219852;28;83808;-73
2023/05/04 13:18:14;;;;;;;3.25;3.05;;;22.70;78.50;;;;;;6245906;28;84239;-74
2023/05/04 13:21:17;;;;;;;3.50;3.20;;;22.70;78.50;;;;;;6233895;27;84582;-75
2023/05/04 13:24:19;;;;;;;3.10;2.90;;;22.70;78.50;;;;;;6220783;28;84030;-74
2023/05/04 13:27:21;;;;;;;3.50;3.20;;;22.70;78.40;;;;;;6216714;28;84326;-74
2023/05/04 13:30:23;;;;;;;3.63;3.25;;;22.70;78.40;;;;;;6238476;28;83272;-73
2023/05/04 13:33:26;;;;;;;3.55;3.25;;;22.70;78.30;;;;;;6249347;28;84003;-74
2023/05/04 13:36:30;;;;;;;3.60;3.30;;;22.70;78.30;;;;;;6226386;28;84054;-73
2023/05/04 13:39:40;;;;;;;3.38;3.08;;;22.80;78.30;;;;;;6236583;28;85011;-73
2023/05/04 13:42:42;;;;;;;3.65;3.30;;;22.70;78.30;;;;;;6223672;28;83776;-74
2023/05/04 13:45:44;;;;;;;3.80;3.50;;;22.70;78.20;;;;;;6249246;28;84098;-74
2023/05/04 13:48:46;;;;;;;3.20;2.95;;;22.70;78.10;;;;;;6249135;27;83976;-74
2023/05/04 13:51:49;;;;;;;3.50;3.20;;;22.70;78.10;;;;;;6248998;28;84026;-74
2023/05/04 13:54:53;;;;;;;3.58;3.30;;;22.70;78.10;;;;;;6233720;28;84328;-73
2023/05/04 13:57:55;;;;;;;3.22;2.92;;;22.70;78.10;;;;;;6225895;28;84156;-74
2023/05/04 14:00:59;;;;;;;3.50;3.17;;;22.70;77.90;;;;;;6246905;27;83377;-74
2023/05/04 14:04:01;;;;;;;3.88;3.33;;;22.70;77.90;;;;;;6233555;27;83841;-74
2023/05/04 14:07:04;;;;;;;3.53;3.22;;;22.80;77.90;;;;;;6224521;28;84111;-74
2023/05/04 14:10:07;;;;;;;3.50;3.20;;;22.70;77.90;;;;;;6212416;28;85026;-74
2023/05/04 14:13:09;;;;;;;3.42;3.13;;;22.70;77.90;;;;;;6239315;27;84252;-75
2023/05/04 14:16:11;;;;;;;3.10;2.80;;;22.70;77.80;;;;;;6230678;28;82950;-75
2023/05/04 14:19:13;;;;;;;3.20;3.00;;;22.70;77.90;;;;;;6226142;27;84004;-75
2023/05/04 14:22:17;;;;;;;3.33;3.03;;;22.70;77.70;;;;;;6241594;28;84063;-75
2023/05/04 14:25:20;;;;;;;2.97;2.78;;;22.80;77.70;;;;;;6235478;27;84141;-74
2023/05/04 14:28:23;;;;;;;3.00;2.80;;;22.70;77.70;;;;;;6213835;28;83046;-74
2023/05/04 14:31:25;;;;;;;3.55;3.25;;;22.70;77.70;;;;;;6215153;28;83397;-74
2023/05/04 14:34:27;;;;;;;3.40;3.10;;;22.70;77.70;;;;;;6222789;28;84099;-75
2023/05/04 14:37:30;;;;;;;3.20;2.90;;;22.70;77.70;;;;;;6212537;28;84148;-75
2023/05/04 14:40:32;;;;;;;3.17;2.90;;;22.70;77.60;;;;;;6235713;28;83850;-73
2023/05/04 14:43:34;;;;;;;3.00;2.80;;;22.70;77.60;;;;;;6213515;28;84315;-75
2023/05/04 14:46:36;;;;;;;2.90;2.70;;;22.80;77.60;;;;;;6220822;28;82914;-75
2023/05/04 14:49:41;;;;;;;3.05;2.85;;;22.70;77.60;;;;;;6217001;28;84091;-75
2023/05/04 14:52:44;;;;;;;3.10;2.80;;;22.70;77.40;;;;;;6222004;28;82704;-74
2023/05/04 14:55:46;;;;;;;2.90;2.70;;;22.70;77.40;;;;;;6240519;28;84126;-74
2023/05/04 14:58:48;;;;;;;3.17;2.97;;;22.80;77.50;;;;;;6226108;28;83251;-74
2023/05/04 15:01:50;;;;;;;3.17;2.88;;;22.70;77.40;;;;;;6235470;27;83516;-74
2023/05/04 15:04:53;;;;;;;3.13;2.83;;;22.70;77.40;;;;;;6235835;28;83973;-75
2023/05/04 15:07:56;;;;;;;3.20;2.90;;;22.70;77.40;;;;;;6229559;28;82910;-75
2023/05/04 15:10:59;;;;;;;2.90;2.67;;;22.80;77.40;;;;;;6211315;28;84983;-75
2023/05/04 15:14:01;;;;;;;3.17;2.90;;;22.70;77.30;;;;;;6245297;27;84218;-75
2023/05/04 15:17:03;;;;;;;2.90;2.70;;;22.80;77.30;;;;;;6240315;27;83088;-75
2023/05/04 15:20:06;;;;;;;3.00;2.80;;;22.70;77.30;;;;;;6214963;27;84048;-75
2023/05/04 15:23:10;;;;;;;3.97;3.20;;;22.80;77.30;;;;;;6244837;28;84050;-74
2023/05/04 15:26:12;;;;;;;3.42;3.13;;;22.70;77.20;;;;;;6220745;28;84067;-74
2023/05/04 15:29:14;;;;;;;3.08;2.80;;;22.70;77.20;;;;;;6223798;28;83914;-73
2023/05/04 15:32:16;;;;;;;2.78;2.58;;;22.80;77.30;;;;;;6224804;28;83288;-74
2023/05/04 15:35:18;;;;;;;3.38;2.80;;;22.70;77.20;;;;;;6244588;28;83182;-74
2023/05/04 15:38:22;;;;;;;2.97;2.78;;;22.80;77.20;;;;;;6215135;28;84435;-73
2023/05/04 15:41:24;;;;;;;2.90;2.70;;;22.70;77.20;;;;;;6216423;28;83628;-74
2023/05/04 15:44:26;;;;;;;2.90;2.70;;;22.80;77.20;;;;;;6217126;28;84494;-72
2023/05/04 15:47:30;;;;;;;2.70;2.50;;;22.80;77.10;;;;;;6216155;28;84078;-73
2023/05/04 15:50:32;;;;;;;3.15;2.85;;;22.70;77.10;;;;;;6256168;27;84207;-74